Time;durP1;ratioP1;P1;durP2;ratioP2;P2;SDS_P1;SDS_P2;PMS_P1;PMS_P2;Temp;Humidity;BMP_temperature;BMP_pressure;BME280_temperature;BME280_humidity;BME280_pressure;Samples;Min_cycle;Max_cycle;Signal;HPM_P1;HPM_P2
2022/06/21 00:01:55;;;;;;;3.57;2.90;;;;;;;-141.29;100.00;58932.97;5093436;28;20205;-74
2022/06/21 00:04:21;;;;;;;3.27;2.70;;;;;;;-141.29;100.00;58932.97;5093351;28;20235;-74
2022/06/21 00:06:52;;;;;;;4.60;2.97;;;;;;;-141.29;100.00;58932.97;5093597;28;20212;-73
2022/06/21 00:09:20;;;;;;;5.30;2.50;;;;;;;-141.29;100.00;58932.97;5093448;28;20618;-73
2022/06/21 00:11:47;;;;;;;4.23;3.03;;;;;;;-141.29;100.00;58932.97;5093317;28;20222;-74
2022/06/21 00:14:14;;;;;;;2.80;2.60;;;;;;;-141.29;100.00;58932.97;5091956;28;20228;-74
2022/06/21 00:16:41;;;;;;;6.40;2.80;;;;;;;-141.29;100.00;58932.97;5093311;28;20196;-73
2022/06/21 00:19:16;;;;;;;4.57;3.03;;;;;;;-141.29;100.00;58932.97;5093167;28;20191;-73
2022/06/21 00:21:44;;;;;;;6.47;3.17;;;;;;;-141.29;100.00;58932.97;5075241;28;20211;-74
2022/06/21 00:24:17;;;;;;;4.30;2.97;;;;;;;-141.29;100.00;58932.97;5092987;28;20219;-74
2022/06/21 00:26:45;;;;;;;5.77;2.93;;;;;;;-141.29;100.00;58932.97;5093266;28;20243;-74
2022/06/21 00:29:15;;;;;;;3.00;2.80;;;;;;;-141.29;100.00;58932.97;5093178;28;20652;-73
2022/06/21 00:31:47;;;;;;;3.93;3.10;;;;;;;-141.29;100.00;58932.97;5092994;28;20278;-73
2022/06/21 00:34:16;;;;;;;3.83;2.67;;;;;;;-141.29;100.00;58932.97;5092797;28;20255;-74
2022/06/21 00:36:44;;;;;;;5.47;3.03;;;;;;;-141.29;100.00;58932.97;5093130;28;20606;-74
2022/06/21 00:39:16;;;;;;;3.77;2.93;;;;;;;-141.29;100.00;58932.97;5092258;28;20200;-73
2022/06/21 00:41:48;;;;;;;3.10;2.70;;;;;;;-141.29;100.00;58932.97;5092918;28;20241;-74
2022/06/21 00:44:21;;;;;;;3.40;2.90;;;;;;;-141.29;100.00;58932.97;5094530;28;20709;-71
2022/06/21 00:46:53;;;;;;;3.80;2.93;;;;;;;-141.29;100.00;58932.97;5093006;28;20199;-74
2022/06/21 00:49:23;;;;;;;5.83;2.67;;;;;;;-141.29;100.00;58932.97;5092517;28;20273;-73
2022/06/21 00:51:57;;;;;;;5.43;3.00;;;;;;;-141.29;100.00;58932.97;5092677;28;20204;-74
2022/06/21 00:54:36;;;;;;;3.40;3.07;;;;;;;-141.29;100.00;58932.97;5092638;28;20230;-73
2022/06/21 00:57:07;;;;;;;3.73;2.93;;;;;;;-141.29;100.00;58932.97;5092560;28;20199;-75
2022/06/21 00:59:35;;;;;;;4.20;2.50;;;;;;;-141.29;100.00;58932.97;5092626;28;20230;-76
2022/06/21 01:02:06;;;;;;;3.67;2.90;;;;;;;-141.29;100.00;58932.97;5074219;28;20261;-74
2022/06/21 01:04:37;;;;;;;3.30;3.00;;;;;;;-141.29;100.00;58932.97;5092062;28;20238;-74
2022/06/21 01:07:08;;;;;;;4.03;3.03;;;;;;;-141.29;100.00;58932.97;5092459;28;20230;-73
2022/06/21 01:09:41;;;;;;;3.50;3.00;;;;;;;-141.29;100.00;58932.97;5092503;28;20207;-75
2022/06/21 01:12:13;;;;;;;3.67;2.90;;;;;;;-141.29;100.00;58932.97;5092022;28;20666;-73
2022/06/21 01:14:48;;;;;;;3.73;2.90;;;;;;;-141.29;100.00;58932.97;5092271;28;20309;-74
2022/06/21 01:17:18;;;;;;;2.90;2.70;;;;;;;-141.29;100.00;58932.97;5091524;28;20199;-73
2022/06/21 01:19:49;;;;;;;7.70;3.30;;;;;;;-141.29;100.00;58932.97;5092311;28;20202;-74
2022/06/21 01:22:25;;;;;;;3.33;2.37;;;;;;;-141.29;100.00;58932.97;5091708;28;20591;-74
2022/06/21 01:25:05;;;;;;;5.97;3.10;;;;;;;-141.29;100.00;58932.97;5091809;28;20280;-73
2022/06/21 01:27:33;;;;;;;5.53;3.03;;;;;;;-141.29;100.00;58932.97;5084233;28;20607;-75
2022/06/21 01:30:02;;;;;;;5.37;3.10;;;;;;;-141.29;100.00;58932.97;5091910;28;20674;-73
2022/06/21 01:32:30;;;;;;;3.37;3.00;;;;;;;-141.29;100.00;58932.97;5077681;28;20210;-74
2022/06/21 01:34:57;;;;;;;5.17;3.47;;;;;;;-141.29;100.00;58932.97;5077651;28;20203;-74
2022/06/21 01:37:28;;;;;;;5.67;3.80;;;;;;;-141.29;100.00;58932.97;5091706;28;20486;-74
2022/06/21 01:40:01;;;;;;;10.50;5.40;;;;;;;-141.29;100.00;58932.97;5091322;28;20234;-73
2022/06/21 01:42:33;;;;;;;6.07;4.70;;;;;;;-141.29;100.00;58932.97;5091511;28;20693;-72
2022/06/21 01:45:06;;;;;;;10.27;4.73;;;;;;;-141.29;100.00;58932.97;5091135;28;20251;-73
2022/06/21 01:47:40;;;;;;;7.10;4.70;;;;;;;-141.29;100.00;58932.97;5091708;28;20203;-73
2022/06/21 01:50:10;;;;;;;5.40;4.63;;;;;;;-141.29;100.00;58932.97;5091313;28;20199;-74
2022/06/21 01:52:43;;;;;;;6.40;4.80;;;;;;;-141.29;100.00;58932.97;5091549;28;20215;-75
2022/06/21 01:55:15;;;;;;;11.10;5.00;;;;;;;-141.29;100.00;58932.97;5091626;28;20678;-73
2022/06/21 01:57:43;;;;;;;8.63;4.67;;;;;;;-141.29;100.00;58932.97;5091633;28;20196;-74
2022/06/21 02:00:14;;;;;;;5.97;4.70;;;;;;;-141.29;100.00;58932.97;5091054;28;20196;-74
2022/06/21 02:02:45;;;;;;;10.70;5.10;;;;;;;-141.29;100.00;58932.97;5091283;28;20686;-73
2022/06/21 02:05:16;;;;;;;8.70;5.30;;;;;;;-141.29;100.00;58932.97;5091079;28;20223;-74
2022/06/21 02:07:50;;;;;;;9.67;5.40;;;;;;;-141.29;100.00;58932.97;5091148;28;20211;-75
2022/06/21 02:10:23;;;;;;;8.53;5.27;;;;;;;-141.29;100.00;58932.97;5090985;28;20666;-74
2022/06/21 02:12:55;;;;;;;6.63;5.47;;;;;;;-141.29;100.00;58932.97;5073105;28;20662;-75
2022/06/21 02:15:35;;;;;;;6.83;5.33;;;;;;;-141.29;100.00;58932.97;5091712;28;20219;-73
2022/06/21 02:18:04;;;;;;;8.20;5.47;;;;;;;-141.29;100.00;58932.97;5091138;28;20199;-74
2022/06/21 02:20:37;;;;;;;7.30;4.60;;;;;;;-141.29;100.00;58932.97;5090999;28;20257;-75
2022/06/21 02:23:06;;;;;;;7.27;4.30;;;;;;;-141.29;100.00;58932.97;5091092;28;20208;-74
2022/06/21 02:25:34;;;;;;;9.70;4.60;;;;;;;-141.29;100.00;58932.97;5090632;28;20698;-74
2022/06/21 02:28:05;;;;;;;8.50;5.13;;;;;;;-141.29;100.00;58932.97;5091160;28;20574;-75
2022/06/21 02:30:36;;;;;;;7.27;4.83;;;;;;;-141.29;100.00;58932.97;5090960;28;20240;-74
2022/06/21 02:33:06;;;;;;;9.00;4.97;;;;;;;-141.29;100.00;58932.97;5091040;28;20214;-74
2022/06/21 02:35:47;;;;;;;7.07;4.50;;;;;;;-141.29;100.00;58932.97;5090647;28;20662;-73
2022/06/21 02:38:19;;;;;;;4.90;3.87;;;;;;;-141.29;100.00;58932.97;5090148;28;20255;-74
2022/06/21 02:40:52;;;;;;;4.93;3.97;;;;;;;-141.29;100.00;58932.97;5091044;28;20231;-74
2022/06/21 02:43:23;;;;;;;4.27;3.87;;;;;;;-141.29;100.00;58932.97;5090674;28;20203;-73
2022/06/21 02:45:58;;;;;;;6.03;3.70;;;;;;;-141.29;100.00;58932.97;5090951;28;20834;-74
2022/06/21 02:48:29;;;;;;;5.10;3.60;;;;;;;-141.29;100.00;58932.97;5092329;28;20219;-73
2022/06/21 02:51:05;;;;;;;4.00;3.30;;;;;;;-141.29;100.00;58932.97;5091011;28;20200;-75
2022/06/21 02:53:36;;;;;;;7.50;3.83;;;;;;;-141.29;100.00;58932.97;5072761;28;20206;-75
2022/06/21 02:56:10;;;;;;;3.97;3.47;;;;;;;-141.29;100.00;58932.97;5090582;28;20293;-75
2022/06/21 02:58:41;;;;;;;4.83;3.80;;;;;;;-141.29;100.00;58932.97;5090472;28;20206;-75
2022/06/21 03:01:18;;;;;;;5.90;3.60;;;;;;;-141.29;100.00;58932.97;5090829;28;20195;-74
2022/06/21 03:03:47;;;;;;;10.27;3.77;;;;;;;-141.29;100.00;58932.97;5090887;28;20203;-73
2022/06/21 03:06:17;;;;;;;4.80;3.57;;;;;;;-141.29;100.00;58932.97;5090358;28;20706;-73
2022/06/21 03:08:52;;;;;;;4.83;3.70;;;;;;;-141.29;100.00;58932.97;5090560;28;20282;-73
2022/06/21 03:11:21;;;;;;;10.57;3.40;;;;;;;-141.29;100.00;58932.97;5090462;28;20257;-74
2022/06/21 03:13:49;;;;;;;3.97;3.50;;;;;;;-141.29;100.00;58932.97;5090312;28;20206;-74
2022/06/21 03:16:18;;;;;;;8.63;3.50;;;;;;;-141.29;100.00;58932.97;5072364;28;20670;-74
2022/06/21 03:18:51;;;;;;;5.00;3.53;;;;;;;-141.29;100.00;58932.97;5090256;28;20719;-74
2022/06/21 03:21:26;;;;;;;5.87;3.37;;;;;;;-141.29;100.00;58932.97;5090391;28;20256;-73
2022/06/21 03:23:54;;;;;;;4.37;3.63;;;;;;;-141.29;100.00;58932.97;5090255;28;20220;-73
2022/06/21 03:26:22;;;;;;;4.13;3.60;;;;;;;-141.29;100.00;58932.97;5089907;28;20238;-73
2022/06/21 03:28:55;;;;;;;3.83;3.23;;;;;;;-141.29;100.00;58932.97;5090352;28;20208;-75
2022/06/21 03:31:29;;;;;;;5.60;3.00;;;;;;;-141.29;100.00;58932.97;5090157;28;20200;-75
2022/06/21 03:34:08;;;;;;;8.67;3.80;;;;;;;-141.29;100.00;58932.97;5090299;28;20218;-74
2022/06/21 03:36:35;;;;;;;4.87;3.50;;;;;;;-141.29;100.00;58932.97;5090318;28;20196;-74
2022/06/21 03:39:06;;;;;;;4.53;3.70;;;;;;;-141.29;100.00;58932.97;5090846;28;20633;-73
2022/06/21 03:41:44;;;;;;;5.40;3.57;;;;;;;-141.29;100.00;58932.97;5089969;28;20288;-73
2022/06/21 03:44:20;;;;;;;8.23;3.90;;;;;;;-141.29;100.00;58932.97;5090237;28;20203;-72
2022/06/21 03:46:55;;;;;;;5.17;3.67;;;;;;;-141.29;100.00;58932.97;5078098;28;20217;-75
2022/06/21 03:49:30;;;;;;;5.57;3.40;;;;;;;-141.29;100.00;58932.97;5093008;28;20705;-73
2022/06/21 03:51:59;;;;;;;7.67;3.50;;;;;;;-141.29;100.00;58932.97;5093730;28;20202;-74
2022/06/21 03:54:32;;;;;;;5.60;3.67;;;;;;;-141.29;100.00;58932.97;5093455;28;20204;-75
2022/06/21 03:57:10;;;;;;;8.73;3.57;;;;;;;-141.29;100.00;58932.97;5093953;28;20204;-75
2022/06/21 03:59:42;;;;;;;9.83;4.43;;;;;;;-141.29;100.00;58932.97;5093099;28;20699;-73
2022/06/21 04:02:19;;;;;;;7.83;4.20;;;;;;;-141.29;100.00;58932.97;5093571;28;20222;-74
2022/06/21 04:04:53;;;;;;;15.27;4.90;;;;;;;-141.29;100.00;58932.97;5093301;28;20223;-75
2022/06/21 04:07:27;;;;;;;4.20;3.40;;;;;;;-141.29;100.00;58932.97;5093169;28;20207;-74
2022/06/21 04:10:00;;;;;;;3.80;3.40;;;;;;;-141.29;100.00;58932.97;5093300;28;20231;-73
2022/06/21 04:12:36;;;;;;;5.93;3.67;;;;;;;-141.29;100.00;58932.97;5093531;28;20206;-74
2022/06/21 04:15:10;;;;;;;5.30;3.67;;;;;;;-141.29;100.00;58932.97;5093189;28;20295;-74
2022/06/21 04:17:45;;;;;;;5.27;3.77;;;;;;;-141.29;100.00;58932.97;5093487;28;20203;-73
2022/06/21 04:20:22;;;;;;;9.13;3.70;;;;;;;-141.29;100.00;58932.97;5092933;28;20666;-74
2022/06/21 04:22:54;;;;;;;7.40;3.60;;;;;;;-141.29;100.00;58932.97;5093437;28;20207;-75
2022/06/21 04:25:27;;;;;;;5.07;3.27;;;;;;;-141.29;100.00;58932.97;5092866;28;20302;-75
2022/06/21 04:27:59;;;;;;;8.30;3.73;;;;;;;-141.29;100.00;58932.97;5093898;28;20703;-73
2022/06/21 04:30:33;;;;;;;4.20;3.80;;;;;;;-141.29;100.00;58932.97;5093000;28;20203;-74
2022/06/21 04:33:07;;;;;;;3.83;3.47;;;;;;;-141.29;100.00;58932.97;5093318;28;20199;-74
2022/06/21 04:35:38;;;;;;;8.63;3.87;;;;;;;-141.29;100.00;58932.97;5093205;28;20274;-75
2022/06/21 04:38:11;;;;;;;4.33;3.87;;;;;;;-141.29;100.00;58932.97;5093238;28;20203;-73
2022/06/21 04:40:42;;;;;;;6.27;3.43;;;;;;;-141.29;100.00;58932.97;5093084;28;20239;-73
2022/06/21 04:43:16;;;;;;;5.50;3.87;;;;;;;-141.29;100.00;58932.97;5093020;28;20204;-73
2022/06/21 04:45:48;;;;;;;8.50;4.93;;;;;;;-141.29;100.00;58932.97;5093293;28;20646;-74
2022/06/21 04:48:30;;;;;;;9.40;5.53;;;;;;;-141.29;100.00;58932.97;5092822;28;20219;-73
2022/06/21 04:51:02;;;;;;;10.03;5.90;;;;;;;-141.29;100.00;58932.97;5094561;28;20586;-72
2022/06/21 04:53:39;;;;;;;11.17;5.70;;;;;;;-141.29;100.00;58932.97;5093026;28;20203;-73
2022/06/21 04:56:14;;;;;;;11.53;5.60;;;;;;;-141.29;100.00;58932.97;5093416;28;20210;-75
2022/06/21 04:58:42;;;;;;;12.60;6.13;;;;;;;-141.29;100.00;58932.97;5093002;28;20218;-73
2022/06/21 05:04:34;;;;;;;12.87;6.30;;;;;;;-141.29;100.00;58932.97;5091840;28;20695;-76
2022/06/21 05:07:07;;;;;;;7.00;5.87;;;;;;;-141.29;100.00;58932.97;5092517;28;20215;-72
2022/06/21 05:09:35;;;;;;;11.20;5.57;;;;;;;-141.29;100.00;58932.97;5092286;28;20199;-74
2022/06/21 05:12:05;;;;;;;11.33;5.93;;;;;;;-141.29;100.00;58932.97;5092258;28;20203;-75
2022/06/21 05:14:37;;;;;;;12.53;6.20;;;;;;;-141.29;100.00;58932.97;5092718;28;20671;-75
2022/06/21 05:17:07;;;;;;;10.27;6.27;;;;;;;-141.29;100.00;58932.97;5082737;28;20215;-73
2022/06/21 05:19:42;;;;;;;13.97;6.60;;;;;;;-141.29;100.00;58932.97;5092968;28;20313;-75
2022/06/21 05:22:22;;;;;;;13.50;6.03;;;;;;;-141.29;100.00;58932.97;5092769;28;20206;-74
2022/06/21 05:24:50;;;;;;;13.07;5.87;;;;;;;-141.29;100.00;58932.97;5092460;28;20199;-73
2022/06/21 05:27:23;;;;;;;8.50;5.27;;;;;;;-141.29;100.00;58932.97;5092730;28;20204;-73
2022/06/21 05:29:57;;;;;;;6.80;5.07;;;;;;;-141.29;100.00;58932.97;5092962;28;20203;-74
2022/06/21 05:32:28;;;;;;;10.10;5.67;;;;;;;-141.29;100.00;58932.97;5093426;28;20218;-74
2022/06/21 05:34:59;;;;;;;8.03;4.50;;;;;;;-141.29;100.00;58932.97;5092378;28;20207;-73
2022/06/21 05:37:32;;;;;;;7.47;4.83;;;;;;;-141.29;100.00;58932.97;5092123;28;20202;-73
2022/06/21 05:40:02;;;;;;;10.50;4.73;;;;;;;-141.29;100.00;58932.97;5092384;28;20227;-73
2022/06/21 05:42:30;;;;;;;20.20;5.73;;;;;;;-141.29;100.00;58932.97;5092172;28;20203;-74
2022/06/21 05:45:03;;;;;;;7.47;5.27;;;;;;;-141.29;100.00;58932.97;5077690;28;20205;-74
2022/06/21 05:47:35;;;;;;;12.27;5.50;;;;;;;-141.29;100.00;58932.97;5091708;28;20199;-73
2022/06/21 05:50:06;;;;;;;11.47;4.83;;;;;;;-141.29;100.00;58932.97;5091996;28;20206;-74
2022/06/21 05:52:38;;;;;;;12.60;5.57;;;;;;;-141.29;100.00;58932.97;5091983;28;20280;-73
2022/06/21 05:55:12;;;;;;;9.90;5.13;;;;;;;-141.29;100.00;58932.97;5091677;28;20204;-74
2022/06/21 05:57:44;;;;;;;8.93;5.17;;;;;;;-141.29;100.00;58932.97;5091868;28;20202;-74
2022/06/21 06:00:25;;;;;;;9.90;5.20;;;;;;;-141.29;100.00;58932.97;5091410;28;20195;-75
2022/06/21 06:02:57;;;;;;;9.60;5.27;;;;;;;-141.29;100.00;58932.97;5091880;28;20208;-74
2022/06/21 06:05:30;;;;;;;14.53;5.50;;;;;;;-141.29;100.00;58932.97;5091716;28;20789;-73
2022/06/21 06:08:06;;;;;;;10.50;5.70;;;;;;;-141.29;100.00;58932.97;5092106;28;20564;-73
2022/06/21 06:10:34;;;;;;;10.83;5.07;;;;;;;-141.29;100.00;58932.97;5091295;28;20199;-74
2022/06/21 06:13:06;;;;;;;18.53;6.10;;;;;;;-141.29;100.00;58932.97;5090839;28;20206;-74
2022/06/21 06:15:39;;;;;;;11.33;5.53;;;;;;;-141.29;100.00;58932.97;5077820;28;20200;-73
2022/06/21 06:18:13;;;;;;;10.80;5.70;;;;;;;-141.29;100.00;58932.97;5096839;28;20234;-73
2022/06/21 06:20:45;;;;;;;10.03;4.73;;;;;;;-141.29;100.00;58932.97;5077689;28;20195;-74
2022/06/21 06:23:24;;;;;;;5.23;4.30;;;;;;;-141.29;100.00;58932.97;5091460;28;20207;-74
2022/06/21 06:25:59;;;;;;;7.87;4.60;;;;;;;-141.29;100.00;58932.97;5091427;28;20227;-74
2022/06/21 06:28:31;;;;;;;9.33;5.37;;;;;;;-141.29;100.00;58932.97;5091549;28;20218;-74
2022/06/21 06:31:04;;;;;;;13.20;5.93;;;;;;;-141.29;100.00;58932.97;5091814;28;20631;-74
2022/06/21 06:33:34;;;;;;;15.47;5.57;;;;;;;-141.29;100.00;58932.97;5091287;28;20663;-74
2022/06/21 06:36:04;;;;;;;14.43;6.13;;;;;;;-141.29;100.00;58932.97;5091281;28;20202;-74
2022/06/21 06:38:33;;;;;;;11.20;6.10;;;;;;;-141.29;100.00;58932.97;5091568;28;20195;-74
2022/06/21 06:41:06;;;;;;;8.80;6.17;;;;;;;-141.29;100.00;58932.97;5091212;28;20667;-74
2022/06/21 06:43:41;;;;;;;15.87;6.43;;;;;;;-141.29;100.00;58932.97;5091463;28;20199;-73
2022/06/21 06:46:17;;;;;;;12.70;7.30;;;;;;;-141.29;100.00;58932.97;5091037;28;20283;-74
2022/06/21 06:48:45;;;;;;;7.43;6.67;;;;;;;-141.29;100.00;58932.97;5091080;28;20705;-73
2022/06/21 06:51:38;;;;;;;14.13;6.63;;;;;;;-141.29;100.00;58932.97;5092092;28;20204;-74
2022/06/21 06:54:12;;;;;;;8.27;6.60;;;;;;;-141.29;100.00;58932.97;5091476;28;20655;-74
2022/06/21 06:56:50;;;;;;;8.73;6.50;;;;;;;-141.29;100.00;58932.97;5091406;28;20200;-74
2022/06/21 06:59:20;;;;;;;15.00;7.10;;;;;;;-141.29;100.00;58932.97;5091357;28;20265;-73
2022/06/21 07:01:52;;;;;;;11.47;6.97;;;;;;;-141.29;100.00;58932.97;5091196;28;20208;-73
2022/06/21 07:04:20;;;;;;;10.00;7.47;;;;;;;-141.29;100.00;58932.97;5090996;28;20208;-75
2022/06/21 07:06:50;;;;;;;10.77;7.47;;;;;;;-141.29;100.00;58932.97;5090959;28;20233;-73
2022/06/21 07:09:25;;;;;;;14.27;7.80;;;;;;;-141.29;100.00;58932.97;5091316;28;20261;-73
2022/06/21 07:12:01;;;;;;;12.13;7.30;;;;;;;-141.29;100.00;58932.97;5091519;28;20231;-74
2022/06/21 07:14:30;;;;;;;13.80;7.33;;;;;;;-141.29;100.00;58932.97;5091096;28;20299;-75
2022/06/21 07:17:06;;;;;;;13.33;7.20;;;;;;;-141.29;100.00;58932.97;5090868;28;20215;-74
2022/06/21 07:19:35;;;;;;;12.70;7.30;;;;;;;-141.29;100.00;58932.97;5091011;28;20595;-73
2022/06/21 07:22:02;;;;;;;14.30;7.17;;;;;;;-141.29;100.00;58932.97;5059118;28;20211;-73
2022/06/21 07:24:30;;;;;;;11.33;6.50;;;;;;;-141.29;100.00;58932.97;5094614;28;20701;-74
2022/06/21 07:27:02;;;;;;;13.57;7.47;;;;;;;-141.29;100.00;58932.97;5094631;28;20762;-73
2022/06/21 07:29:34;;;;;;;12.70;6.80;;;;;;;-141.29;100.00;58932.97;5094902;28;20204;-74
2022/06/21 07:32:08;;;;;;;17.77;6.83;;;;;;;-141.29;100.00;58932.97;5094484;28;20625;-73
2022/06/21 07:34:42;;;;;;;13.33;6.07;;;;;;;-141.29;100.00;58932.97;5094032;28;20191;-74
2022/06/21 07:37:15;;;;;;;12.03;6.30;;;;;;;-141.29;100.00;58932.97;5094462;28;20262;-76
2022/06/21 07:39:49;;;;;;;13.40;5.80;;;;;;;-141.29;100.00;58932.97;5094305;28;20645;-75
2022/06/21 07:42:20;;;;;;;13.37;6.70;;;;;;;-141.29;100.00;58932.97;5094692;28;20204;-73
2022/06/21 07:44:53;;;;;;;10.63;6.50;;;;;;;-141.29;100.00;58932.97;5094900;28;20200;-75
2022/06/21 07:47:27;;;;;;;15.73;6.73;;;;;;;-141.29;100.00;58932.97;5094455;28;20223;-74
2022/06/21 07:49:58;;;;;;;17.37;6.10;;;;;;;-141.29;100.00;58932.97;5094664;28;20253;-74
2022/06/21 07:52:29;;;;;;;14.47;6.10;;;;;;;-141.29;100.00;58932.97;5094282;28;20210;-75
2022/06/21 07:55:04;;;;;;;11.53;5.83;;;;;;;-141.29;100.00;58932.97;5094930;28;20207;-74
2022/06/21 07:57:36;;;;;;;15.23;6.20;;;;;;;-141.29;100.00;58932.97;5095454;28;20202;-73
2022/06/21 08:00:08;;;;;;;11.37;5.70;;;;;;;-141.29;100.00;58932.97;5099194;28;20244;-73
2022/06/21 08:08:14;;;;;;;10.93;5.03;;;;;;;-141.29;100.00;58932.97;5093427;28;20655;-75
2022/06/21 08:10:49;;;;;;;8.93;5.17;;;;;;;-141.29;100.00;58932.97;5093915;28;20202;-73
2022/06/21 08:13:17;;;;;;;18.03;5.67;;;;;;;-141.29;100.00;58932.97;5093997;28;20283;-75
2022/06/21 08:15:48;;;;;;;11.87;4.80;;;;;;;-141.29;100.00;58932.97;5093730;28;20282;-73
2022/06/21 08:18:22;;;;;;;13.13;4.73;;;;;;;-141.29;100.00;58932.97;5094112;28;20595;-73
2022/06/21 08:20:57;;;;;;;10.10;5.20;;;;;;;-141.29;100.00;58932.97;5093851;28;20206;-75
2022/06/21 08:23:31;;;;;;;9.80;4.87;;;;;;;-141.29;100.00;58932.97;5093967;28;20236;-74
2022/06/21 08:26:03;;;;;;;8.90;4.60;;;;;;;-141.29;100.00;58932.97;5093434;28;20234;-74
2022/06/21 08:28:36;;;;;;;11.50;4.83;;;;;;;-141.29;100.00;58932.97;5093369;28;20587;-74
2022/06/21 08:31:08;;;;;;;10.07;5.10;;;;;;;-141.29;100.00;58932.97;5093548;28;20209;-74
2022/06/21 08:33:40;;;;;;;11.70;5.40;;;;;;;-141.29;100.00;58932.97;5093130;28;20283;-74
2022/06/21 08:36:11;;;;;;;15.90;6.00;;;;;;;-141.29;100.00;58932.97;5092065;28;20204;-74
2022/06/21 08:38:44;;;;;;;10.90;6.30;;;;;;;-141.29;100.00;58932.97;5093010;28;20588;-75
2022/06/21 08:41:55;;;;;;;9.90;6.10;;;;;;;-141.29;100.00;58932.97;5093098;28;20228;-75
2022/06/21 08:48:40;;;;;;;13.50;6.73;;;;;;;-141.29;100.00;58932.97;5082780;28;20239;-73
2022/06/21 08:51:55;;;;;;;28.90;7.20;;;;;;;-141.29;100.00;58932.97;5093438;28;20218;-73
2022/06/21 08:54:35;;;;;;;11.53;6.40;;;;;;;-141.29;100.00;58932.97;5080935;28;20278;-73
2022/06/21 08:57:12;;;;;;;9.50;6.40;;;;;;;-141.29;100.00;58932.97;5092289;28;20674;-75
2022/06/21 08:59:48;;;;;;;11.67;6.50;;;;;;;-141.29;100.00;58932.97;5092710;28;20227;-74
2022/06/21 09:02:24;;;;;;;15.63;6.50;;;;;;;-141.29;100.00;58932.97;5092487;28;20628;-73
2022/06/21 09:05:09;;;;;;;8.10;6.57;;;;;;;-141.29;100.00;58932.97;5092418;28;20199;-74
2022/06/21 09:08:13;;;;;;;21.67;7.73;;;;;;;-141.29;100.00;58932.97;5092202;28;20227;-75
2022/06/21 09:10:56;;;;;;;33.30;9.30;;;;;;;-141.29;100.00;58932.97;5044936;28;20199;-74
2022/06/21 09:13:55;;;;;;;27.57;7.50;;;;;;;-141.29;100.00;58932.97;5092522;28;20670;-76
2022/06/21 09:16:34;;;;;;;26.93;8.60;;;;;;;-141.29;100.00;58932.97;5091566;28;20200;-74
2022/06/21 09:19:14;;;;;;;24.13;7.77;;;;;;;-141.29;100.00;58932.97;5092291;28;20195;-73
2022/06/21 09:21:51;;;;;;;14.17;6.80;;;;;;;-141.29;100.00;58932.97;5092572;28;20208;-75
2022/06/21 09:24:32;;;;;;;18.23;8.30;;;;;;;-141.29;100.00;58932.97;5091817;28;20792;-74
2022/06/21 09:27:05;;;;;;;10.67;6.50;;;;;;;-141.29;100.00;58932.97;5092526;28;20227;-74
2022/06/21 09:29:46;;;;;;;15.03;7.50;;;;;;;-141.29;100.00;58932.97;5092000;28;20215;-74
2022/06/21 09:32:26;;;;;;;16.33;7.77;;;;;;;-141.29;100.00;58932.97;5092188;28;20199;-73
2022/06/21 09:35:12;;;;;;;11.60;7.40;;;;;;;-141.29;100.00;58932.97;5079530;28;20202;-75
2022/06/21 09:37:53;;;;;;;19.50;7.87;;;;;;;-141.29;100.00;58932.97;5093585;28;20200;-72
2022/06/21 09:40:28;;;;;;;14.63;7.07;;;;;;;-141.29;100.00;58932.97;5095179;28;20231;-74
2022/06/21 09:43:15;;;;;;;21.43;8.60;;;;;;;-141.29;100.00;58932.97;5091828;28;20219;-74
2022/06/21 09:45:55;;;;;;;16.50;6.87;;;;;;;-141.29;100.00;58932.97;5091487;28;20193;-74
2022/06/21 09:48:31;;;;;;;12.03;7.37;;;;;;;-141.29;100.00;58932.97;5091793;28;20254;-75
2022/06/21 09:51:07;;;;;;;18.13;7.10;;;;;;;-141.29;100.00;58932.97;5091181;28;20207;-73
2022/06/21 09:53:46;;;;;;;10.60;6.67;;;;;;;-141.29;100.00;58932.97;5091638;28;20199;-74
2022/06/21 09:56:26;;;;;;;13.17;7.70;;;;;;;-141.29;100.00;58932.97;5091288;28;20196;-75
2022/06/21 09:59:02;;;;;;;10.33;7.23;;;;;;;-141.29;100.00;58932.97;5091836;28;20294;-74
2022/06/21 10:01:42;;;;;;;14.23;7.07;;;;;;;-141.29;100.00;58932.97;5091569;28;20196;-74
2022/06/21 10:04:23;;;;;;;9.70;7.37;;;;;;;-141.29;100.00;58932.97;5091651;28;20231;-74
2022/06/21 10:06:59;;;;;;;12.47;7.03;;;;;;;-141.29;100.00;58932.97;5091447;28;20228;-74
2022/06/21 10:09:47;;;;;;;14.50;7.13;;;;;;;-141.29;100.00;58932.97;5091149;28;20226;-75
2022/06/21 10:12:26;;;;;;;15.83;7.30;;;;;;;-141.29;100.00;58932.97;5091231;28;20207;-74
2022/06/21 10:15:06;;;;;;;12.07;7.63;;;;;;;-141.29;100.00;58932.97;5091022;28;20228;-73
2022/06/21 10:18:03;;;;;;;10.80;7.10;;;;;;;-141.29;100.00;58932.97;5091125;28;20668;-75
2022/06/21 10:20:54;;;;;;;13.43;6.97;;;;;;;-141.29;100.00;58932.97;5057019;28;20200;-75
2022/06/21 10:23:38;;;;;;;14.50;6.63;;;;;;;-141.29;100.00;58932.97;5091420;28;20271;-74
2022/06/21 10:26:22;;;;;;;13.00;6.83;;;;;;;-141.29;100.00;58932.97;5091137;28;20279;-75
2022/06/21 10:29:07;;;;;;;12.17;6.43;;;;;;;-141.29;100.00;58932.97;5091095;28;20274;-74
2022/06/21 10:31:52;;;;;;;11.70;7.20;;;;;;;-141.29;100.00;58932.97;5091352;28;20305;-74
2022/06/21 10:34:52;;;;;;;12.70;7.30;;;;;;;-141.29;100.00;58932.97;5082216;28;20338;-73
2022/06/21 10:37:36;;;;;;;13.73;7.57;;;;;;;-141.29;100.00;58932.97;5086971;28;20243;-75
2022/06/21 10:40:22;;;;;;;12.77;6.80;;;;;;;-141.29;100.00;58932.97;5088649;28;20241;-74
2022/06/21 10:43:24;;;;;;;13.87;6.70;;;;;;;-141.29;100.00;58932.97;5090981;28;20226;-74
2022/06/21 10:46:00;;;;;;;31.77;8.67;;;;;;;-141.29;100.00;58932.97;5081782;28;20202;-73
2022/06/21 10:49:01;;;;;;;11.40;6.13;;;;;;;-141.29;100.00;58932.97;5090870;28;20253;-74
2022/06/21 10:51:49;;;;;;;8.87;6.67;;;;;;;-141.29;100.00;58932.97;5090890;28;20204;-76
2022/06/21 10:54:37;;;;;;;13.57;6.47;;;;;;;-141.29;100.00;58932.97;5090844;28;20656;-74
2022/06/21 10:57:13;;;;;;;16.50;6.40;;;;;;;-141.29;100.00;58932.97;5091342;28;20611;-74
2022/06/21 11:03:07;;;;;;;16.67;6.63;;;;;;;-141.29;100.00;58932.97;5097729;28;20304;-74
2022/06/21 11:05:41;;;;;;;9.77;6.80;;;;;;;-141.29;100.00;58932.97;5098007;28;20208;-73
2022/06/21 11:08:17;;;;;;;8.83;6.83;;;;;;;-141.29;100.00;58932.97;5097623;28;20224;-74
2022/06/21 11:10:51;;;;;;;11.90;7.30;;;;;;;-141.29;100.00;58932.97;5097584;28;20210;-74
2022/06/21 11:13:22;;;;;;;10.07;6.80;;;;;;;-141.29;100.00;58932.97;5097764;28;20196;-74
2022/06/21 11:16:01;;;;;;;11.67;6.97;;;;;;;-141.29;100.00;58932.97;5097168;28;20200;-75
2022/06/21 11:18:47;;;;;;;10.73;6.60;;;;;;;-141.29;100.00;58932.97;5100765;28;20199;-74
2022/06/21 11:21:27;;;;;;;13.57;6.90;;;;;;;-141.29;100.00;58932.97;5100653;28;20203;-74
2022/06/21 11:24:06;;;;;;;18.10;7.13;;;;;;;-141.29;100.00;58932.97;5097405;28;20662;-75
2022/06/21 11:26:45;;;;;;;13.77;7.53;;;;;;;-141.29;100.00;58932.97;5097469;28;20196;-74
2022/06/21 11:29:24;;;;;;;16.80;8.20;;;;;;;-141.29;100.00;58932.97;5097581;28;20209;-74
2022/06/21 11:31:58;;;;;;;11.03;7.83;;;;;;;-141.29;100.00;58932.97;5085377;28;20196;-74
2022/06/21 11:34:33;;;;;;;11.73;7.53;;;;;;;-141.29;100.00;58932.97;5095828;28;20223;-74
2022/06/21 11:37:11;;;;;;;11.13;7.27;;;;;;;-141.29;100.00;58932.97;5062477;28;20747;-74
2022/06/21 11:39:56;;;;;;;9.80;7.20;;;;;;;-141.29;100.00;58932.97;5093341;28;20200;-74
2022/06/21 11:42:28;;;;;;;11.77;7.07;;;;;;;-141.29;100.00;58932.97;5098459;28;20212;-74
2022/06/21 11:45:20;;;;;;;11.93;7.37;;;;;;;-141.29;100.00;58932.97;5097912;28;20213;-74
2022/06/21 11:48:21;;;;;;;10.70;7.47;;;;;;;-141.29;100.00;58932.97;5096406;28;20614;-74
2022/06/21 11:51:00;;;;;;;12.17;7.30;;;;;;;-141.29;100.00;58932.97;5097669;28;20206;-74
2022/06/21 11:53:43;;;;;;;11.70;7.60;;;;;;;-141.29;100.00;58932.97;5097706;28;20220;-74
2022/06/21 11:56:19;;;;;;;9.80;7.10;;;;;;;-141.29;100.00;58932.97;5098712;28;20242;-73